sensor_id;sensor_type;location;lat;lon;timestamp;P1;durP1;ratioP1;P2;durP2;ratioP2
6834;SDS011;3455;42.150;24.734;2022-11-09T00:00:09;79.33;;;47.80;;
6834;SDS011;3455;42.150;24.734;2022-11-09T00:02:36;85.20;;;49.40;;
6834;SDS011;3455;42.150;24.734;2022-11-09T00:05:05;84.33;;;48.23;;
6834;SDS011;3455;42.150;24.734;2022-11-09T00:07:32;74.53;;;47.17;;
6834;SDS011;3455;42.150;24.734;2022-11-09T00:09:59;78.00;;;49.33;;
6834;SDS011;3455;42.150;24.734;2022-11-09T00:12:26;78.63;;;48.57;;
6834;SDS011;3455;42.150;24.734;2022-11-09T00:14:52;80.53;;;48.57;;
6834;SDS011;3455;42.150;24.734;2022-11-09T00:17:19;87.83;;;47.77;;
6834;SDS011;3455;42.150;24.734;2022-11-09T00:19:46;82.37;;;48.27;;
6834;SDS011;3455;42.150;24.734;2022-11-09T00:22:14;74.23;;;46.07;;
6834;SDS011;3455;42.150;24.734;2022-11-09T00:24:40;74.17;;;43.17;;
6834;SDS011;3455;42.150;24.734;2022-11-09T00:27:07;78.00;;;45.07;;
6834;SDS011;3455;42.150;24.734;2022-11-09T00:29:34;71.97;;;43.73;;
6834;SDS011;3455;42.150;24.734;2022-11-09T00:32:00;70.07;;;44.10;;
6834;SDS011;3455;42.150;24.734;2022-11-09T00:34:27;73.20;;;45.90;;
6834;SDS011;3455;42.150;24.734;2022-11-09T00:36:54;79.50;;;45.90;;
6834;SDS011;3455;42.150;24.734;2022-11-09T00:39:22;79.37;;;45.93;;
6834;SDS011;3455;42.150;24.734;2022-11-09T00:41:49;75.67;;;43.43;;
6834;SDS011;3455;42.150;24.734;2022-11-09T00:44:15;72.63;;;44.43;;
6834;SDS011;3455;42.150;24.734;2022-11-09T00:46:42;68.13;;;43.90;;
6834;SDS011;3455;42.150;24.734;2022-11-09T00:49:09;75.60;;;46.23;;
6834;SDS011;3455;42.150;24.734;2022-11-09T00:51:36;76.17;;;45.80;;
6834;SDS011;3455;42.150;24.734;2022-11-09T00:54:03;77.83;;;45.13;;
6834;SDS011;3455;42.150;24.734;2022-11-09T00:56:33;73.70;;;46.73;;
6834;SDS011;3455;42.150;24.734;2022-11-09T00:59:00;78.57;;;48.63;;
6834;SDS011;3455;42.150;24.734;2022-11-09T01:01:26;76.57;;;47.93;;
6834;SDS011;3455;42.150;24.734;2022-11-09T01:03:53;69.77;;;43.90;;
6834;SDS011;3455;42.150;24.734;2022-11-09T01:06:21;68.20;;;41.47;;
6834;SDS011;3455;42.150;24.734;2022-11-09T01:08:49;65.17;;;41.43;;
6834;SDS011;3455;42.150;24.734;2022-11-09T01:11:16;67.03;;;40.80;;
6834;SDS011;3455;42.150;24.734;2022-11-09T01:13:46;71.33;;;40.73;;
6834;SDS011;3455;42.150;24.734;2022-11-09T01:16:13;67.40;;;41.43;;
6834;SDS011;3455;42.150;24.734;2022-11-09T01:18:41;62.17;;;39.27;;
6834;SDS011;3455;42.150;24.734;2022-11-09T01:21:09;70.17;;;42.53;;
6834;SDS011;3455;42.150;24.734;2022-11-09T01:23:37;64.00;;;40.37;;
6834;SDS011;3455;42.150;24.734;2022-11-09T01:26:06;69.07;;;41.40;;
6834;SDS011;3455;42.150;24.734;2022-11-09T01:28:34;69.03;;;42.23;;
6834;SDS011;3455;42.150;24.734;2022-11-09T01:31:03;72.43;;;44.27;;
6834;SDS011;3455;42.150;24.734;2022-11-09T01:33:31;70.57;;;41.37;;
6834;SDS011;3455;42.150;24.734;2022-11-09T01:36:00;68.57;;;41.87;;
6834;SDS011;3455;42.150;24.734;2022-11-09T01:38:27;67.33;;;41.30;;
6834;SDS011;3455;42.150;24.734;2022-11-09T01:40:54;71.53;;;42.87;;
6834;SDS011;3455;42.150;24.734;2022-11-09T01:43:21;71.13;;;43.27;;
6834;SDS011;3455;42.150;24.734;2022-11-09T01:45:50;66.67;;;41.53;;
6834;SDS011;3455;42.150;24.734;2022-11-09T01:48:23;65.10;;;41.17;;
6834;SDS011;3455;42.150;24.734;2022-11-09T01:54:18;69.03;;;42.57;;
6834;SDS011;3455;42.150;24.734;2022-11-09T01:56:48;71.50;;;43.03;;
6834;SDS011;3455;42.150;24.734;2022-11-09T01:59:20;69.93;;;44.13;;
6834;SDS011;3455;42.150;24.734;2022-11-09T02:01:51;71.00;;;42.57;;
6834;SDS011;3455;42.150;24.734;2022-11-09T02:04:21;71.53;;;43.43;;
6834;SDS011;3455;42.150;24.734;2022-11-09T02:06:50;61.87;;;40.53;;
6834;SDS011;3455;42.150;24.734;2022-11-09T02:09:20;71.47;;;43.17;;
6834;SDS011;3455;42.150;24.734;2022-11-09T02:11:52;71.67;;;44.47;;
6834;SDS011;3455;42.150;24.734;2022-11-09T02:14:19;66.03;;;42.90;;
6834;SDS011;3455;42.150;24.734;2022-11-09T02:16:49;65.13;;;41.70;;
6834;SDS011;3455;42.150;24.734;2022-11-09T02:19:15;69.30;;;43.00;;
6834;SDS011;3455;42.150;24.734;2022-11-09T02:21:43;73.67;;;42.90;;
6834;SDS011;3455;42.150;24.734;2022-11-09T02:24:10;67.03;;;43.30;;
6834;SDS011;3455;42.150;24.734;2022-11-09T02:26:39;71.73;;;44.03;;
6834;SDS011;3455;42.150;24.734;2022-11-09T02:29:09;73.73;;;44.87;;
6834;SDS011;3455;42.150;24.734;2022-11-09T02:31:40;76.60;;;42.93;;
6834;SDS011;3455;42.150;24.734;2022-11-09T02:34:10;74.50;;;43.87;;
6834;SDS011;3455;42.150;24.734;2022-11-09T02:36:39;68.97;;;42.90;;
6834;SDS011;3455;42.150;24.734;2022-11-09T02:39:08;75.73;;;42.37;;
6834;SDS011;3455;42.150;24.734;2022-11-09T02:41:37;69.73;;;43.13;;
6834;SDS011;3455;42.150;24.734;2022-11-09T02:44:08;70.30;;;44.00;;
6834;SDS011;3455;42.150;24.734;2022-11-09T02:46:35;70.97;;;42.93;;
6834;SDS011;3455;42.150;24.734;2022-11-09T02:49:02;69.67;;;42.93;;
6834;SDS011;3455;42.150;24.734;2022-11-09T02:51:30;81.27;;;44.83;;
6834;SDS011;3455;42.150;24.734;2022-11-09T02:53:57;76.30;;;44.47;;
6834;SDS011;3455;42.150;24.734;2022-11-09T02:56:25;78.10;;;45.37;;
6834;SDS011;3455;42.150;24.734;2022-11-09T02:58:52;76.77;;;45.40;;
6834;SDS011;3455;42.150;24.734;2022-11-09T03:01:18;77.00;;;45.10;;
6834;SDS011;3455;42.150;24.734;2022-11-09T03:03:45;65.20;;;43.73;;
6834;SDS011;3455;42.150;24.734;2022-11-09T03:06:12;68.27;;;43.73;;
6834;SDS011;3455;42.150;24.734;2022-11-09T03:08:39;74.70;;;44.63;;
6834;SDS011;3455;42.150;24.734;2022-11-09T03:11:05;69.87;;;45.73;;
6834;SDS011;3455;42.150;24.734;2022-11-09T03:13:33;72.03;;;46.87;;
6834;SDS011;3455;42.150;24.734;2022-11-09T03:16:02;72.07;;;43.90;;
6834;SDS011;3455;42.150;24.734;2022-11-09T03:18:30;84.37;;;46.93;;
6834;SDS011;3455;42.150;24.734;2022-11-09T03:20:59;82.93;;;47.57;;
6834;SDS011;3455;42.150;24.734;2022-11-09T03:23:27;80.67;;;48.30;;
6834;SDS011;3455;42.150;24.734;2022-11-09T03:25:53;77.63;;;45.73;;
6834;SDS011;3455;42.150;24.734;2022-11-09T03:28:20;75.17;;;46.67;;
6834;SDS011;3455;42.150;24.734;2022-11-09T03:30:48;76.03;;;45.70;;
6834;SDS011;3455;42.150;24.734;2022-11-09T03:33:15;76.23;;;46.67;;
6834;SDS011;3455;42.150;24.734;2022-11-09T03:35:41;85.00;;;46.93;;
6834;SDS011;3455;42.150;24.734;2022-11-09T03:38:08;76.63;;;45.97;;
6834;SDS011;3455;42.150;24.734;2022-11-09T03:40:35;79.73;;;46.77;;
6834;SDS011;3455;42.150;24.734;2022-11-09T03:43:02;73.50;;;44.93;;
6834;SDS011;3455;42.150;24.734;2022-11-09T03:45:29;77.17;;;47.13;;
6834;SDS011;3455;42.150;24.734;2022-11-09T03:47:57;77.23;;;46.80;;
6834;SDS011;3455;42.150;24.734;2022-11-09T03:50:25;71.97;;;44.43;;
6834;SDS011;3455;42.150;24.734;2022-11-09T03:52:52;78.30;;;45.90;;
6834;SDS011;3455;42.150;24.734;2022-11-09T03:55:19;79.53;;;46.17;;
6834;SDS011;3455;42.150;24.734;2022-11-09T03:57:46;81.93;;;46.73;;
6834;SDS011;3455;42.150;24.734;2022-11-09T04:00:13;80.90;;;46.73;;
6834;SDS011;3455;42.150;24.734;2022-11-09T04:02:42;77.70;;;47.33;;
6834;SDS011;3455;42.150;24.734;2022-11-09T04:05:10;79.40;;;45.57;;
6834;SDS011;3455;42.150;24.734;2022-11-09T04:07:37;73.83;;;45.50;;
6834;SDS011;3455;42.150;24.734;2022-11-09T04:10:05;84.60;;;45.20;;
6834;SDS011;3455;42.150;24.734;2022-11-09T04:12:32;73.87;;;45.13;;
6834;SDS011;3455;42.150;24.734;2022-11-09T04:14:59;79.73;;;46.93;;
6834;SDS011;3455;42.150;24.734;2022-11-09T04:20:48;74.93;;;44.87;;
6834;SDS011;3455;42.150;24.734;2022-11-09T04:23:15;80.33;;;46.50;;
6834;SDS011;3455;42.150;24.734;2022-11-09T04:25:42;74.57;;;45.30;;
6834;SDS011;3455;42.150;24.734;2022-11-09T04:28:09;84.13;;;44.53;;
6834;SDS011;3455;42.150;24.734;2022-11-09T04:33:59;77.33;;;45.53;;
6834;SDS011;3455;42.150;24.734;2022-11-09T04:36:27;79.53;;;46.47;;
6834;SDS011;3455;42.150;24.734;2022-11-09T04:38:53;73.20;;;46.70;;
6834;SDS011;3455;42.150;24.734;2022-11-09T04:41:20;80.70;;;47.80;;
6834;SDS011;3455;42.150;24.734;2022-11-09T04:43:47;74.67;;;47.23;;
6834;SDS011;3455;42.150;24.734;2022-11-09T04:46:13;69.50;;;45.30;;
6834;SDS011;3455;42.150;24.734;2022-11-09T04:48:40;85.10;;;48.03;;
6834;SDS011;3455;42.150;24.734;2022-11-09T04:51:08;71.40;;;47.37;;
6834;SDS011;3455;42.150;24.734;2022-11-09T04:53:37;85.00;;;46.43;;
6834;SDS011;3455;42.150;24.734;2022-11-09T04:56:05;76.40;;;47.97;;
6834;SDS011;3455;42.150;24.734;2022-11-09T04:58:33;77.27;;;47.40;;
6834;SDS011;3455;42.150;24.734;2022-11-09T05:04:22;79.37;;;46.67;;
6834;SDS011;3455;42.150;24.734;2022-11-09T05:10:11;76.97;;;47.07;;
6834;SDS011;3455;42.150;24.734;2022-11-09T05:12:38;84.17;;;50.03;;
6834;SDS011;3455;42.150;24.734;2022-11-09T05:18:26;82.57;;;48.43;;
6834;SDS011;3455;42.150;24.734;2022-11-09T05:20:57;79.50;;;50.97;;
6834;SDS011;3455;42.150;24.734;2022-11-09T05:23:24;68.20;;;47.40;;
6834;SDS011;3455;42.150;24.734;2022-11-09T05:26:09;79.27;;;48.70;;
6834;SDS011;3455;42.150;24.734;2022-11-09T05:28:36;75.33;;;47.40;;
6834;SDS011;3455;42.150;24.734;2022-11-09T05:31:03;78.67;;;46.70;;
6834;SDS011;3455;42.150;24.734;2022-11-09T05:33:30;72.10;;;44.30;;
6834;SDS011;3455;42.150;24.734;2022-11-09T05:35:57;73.20;;;45.27;;
6834;SDS011;3455;42.150;24.734;2022-11-09T05:38:24;75.17;;;44.83;;
6834;SDS011;3455;42.150;24.734;2022-11-09T05:40:51;69.93;;;42.23;;
6834;SDS011;3455;42.150;24.734;2022-11-09T05:46:41;75.87;;;45.47;;
6834;SDS011;3455;42.150;24.734;2022-11-09T05:49:08;76.70;;;43.03;;
6834;SDS011;3455;42.150;24.734;2022-11-09T05:54:56;74.80;;;42.90;;
6834;SDS011;3455;42.150;24.734;2022-11-09T05:57:24;72.77;;;41.47;;
6834;SDS011;3455;42.150;24.734;2022-11-09T06:03:14;71.80;;;40.87;;
6834;SDS011;3455;42.150;24.734;2022-11-09T06:05:41;96.50;;;43.97;;
6834;SDS011;3455;42.150;24.734;2022-11-09T06:08:08;63.83;;;42.00;;
6834;SDS011;3455;42.150;24.734;2022-11-09T06:10:37;69.73;;;42.80;;
6834;SDS011;3455;42.150;24.734;2022-11-09T06:13:04;66.93;;;44.20;;
6834;SDS011;3455;42.150;24.734;2022-11-09T06:15:31;63.43;;;42.33;;
6834;SDS011;3455;42.150;24.734;2022-11-09T06:17:58;67.03;;;42.00;;
6834;SDS011;3455;42.150;24.734;2022-11-09T06:20:26;76.97;;;42.23;;
6834;SDS011;3455;42.150;24.734;2022-11-09T06:22:53;79.50;;;44.10;;
6834;SDS011;3455;42.150;24.734;2022-11-09T06:25:21;72.33;;;43.70;;
6834;SDS011;3455;42.150;24.734;2022-11-09T06:27:48;66.07;;;42.10;;
6834;SDS011;3455;42.150;24.734;2022-11-09T06:30:15;76.43;;;43.23;;
6834;SDS011;3455;42.150;24.734;2022-11-09T06:32:42;69.70;;;43.07;;
6834;SDS011;3455;42.150;24.734;2022-11-09T06:35:09;78.37;;;45.67;;
6834;SDS011;3455;42.150;24.734;2022-11-09T06:37:37;82.57;;;46.23;;
6834;SDS011;3455;42.150;24.734;2022-11-09T06:40:04;79.97;;;46.37;;
6834;SDS011;3455;42.150;24.734;2022-11-09T06:42:31;80.57;;;49.17;;
6834;SDS011;3455;42.150;24.734;2022-11-09T06:44:58;76.40;;;45.97;;
6834;SDS011;3455;42.150;24.734;2022-11-09T06:47:26;65.90;;;42.47;;
6834;SDS011;3455;42.150;24.734;2022-11-09T06:49:53;67.37;;;41.57;;
6834;SDS011;3455;42.150;24.734;2022-11-09T06:52:19;78.67;;;41.70;;
6834;SDS011;3455;42.150;24.734;2022-11-09T06:54:47;65.50;;;39.40;;
6834;SDS011;3455;42.150;24.734;2022-11-09T06:57:14;74.77;;;38.73;;
6834;SDS011;3455;42.150;24.734;2022-11-09T06:59:41;66.37;;;37.80;;
6834;SDS011;3455;42.150;24.734;2022-11-09T07:02:07;63.17;;;37.47;;
6834;SDS011;3455;42.150;24.734;2022-11-09T07:08:01;57.17;;;38.47;;
6834;SDS011;3455;42.150;24.734;2022-11-09T07:10:29;72.50;;;41.25;;
6834;SDS011;3455;42.150;24.734;2022-11-09T07:12:56;62.28;;;38.63;;
6834;SDS011;3455;42.150;24.734;2022-11-09T07:15:23;67.80;;;42.08;;
6834;SDS011;3455;42.150;24.734;2022-11-09T07:17:50;58.53;;;42.13;;
6834;SDS011;3455;42.150;24.734;2022-11-09T07:20:17;66.40;;;43.70;;
6834;SDS011;3455;42.150;24.734;2022-11-09T07:22:43;72.57;;;43.08;;
6834;SDS011;3455;42.150;24.734;2022-11-09T07:25:15;64.80;;;41.22;;
6834;SDS011;3455;42.150;24.734;2022-11-09T07:27:43;63.28;;;42.20;;
6834;SDS011;3455;42.150;24.734;2022-11-09T07:33:32;90.32;;;45.55;;
6834;SDS011;3455;42.150;24.734;2022-11-09T07:35:59;77.97;;;42.60;;
6834;SDS011;3455;42.150;24.734;2022-11-09T07:41:48;73.60;;;43.45;;
6834;SDS011;3455;42.150;24.734;2022-11-09T07:44:16;67.80;;;46.15;;
6834;SDS011;3455;42.150;24.734;2022-11-09T07:46:43;76.05;;;47.10;;
6834;SDS011;3455;42.150;24.734;2022-11-09T07:52:33;68.28;;;48.40;;
6834;SDS011;3455;42.150;24.734;2022-11-09T07:54:59;74.68;;;46.63;;
6834;SDS011;3455;42.150;24.734;2022-11-09T07:57:26;74.38;;;47.70;;
6834;SDS011;3455;42.150;24.734;2022-11-09T07:59:54;73.72;;;46.60;;
6834;SDS011;3455;42.150;24.734;2022-11-09T08:02:21;103.32;;;47.42;;
6834;SDS011;3455;42.150;24.734;2022-11-09T08:04:47;74.55;;;48.17;;
6834;SDS011;3455;42.150;24.734;2022-11-09T08:07:14;66.75;;;48.28;;
6834;SDS011;3455;42.150;24.734;2022-11-09T08:09:41;79.53;;;48.72;;
6834;SDS011;3455;42.150;24.734;2022-11-09T08:12:07;76.90;;;49.10;;
6834;SDS011;3455;42.150;24.734;2022-11-09T08:14:34;73.65;;;50.90;;
6834;SDS011;3455;42.150;24.734;2022-11-09T08:17:02;66.35;;;49.38;;
6834;SDS011;3455;42.150;24.734;2022-11-09T08:19:29;77.55;;;52.78;;
6834;SDS011;3455;42.150;24.734;2022-11-09T08:21:55;67.47;;;52.30;;
6834;SDS011;3455;42.150;24.734;2022-11-09T08:24:22;73.82;;;52.08;;
6834;SDS011;3455;42.150;24.734;2022-11-09T08:26:49;76.57;;;53.50;;
6834;SDS011;3455;42.150;24.734;2022-11-09T08:29:16;75.68;;;54.55;;
6834;SDS011;3455;42.150;24.734;2022-11-09T08:31:43;70.53;;;51.85;;
6834;SDS011;3455;42.150;24.734;2022-11-09T08:34:11;69.07;;;48.80;;
6834;SDS011;3455;42.150;24.734;2022-11-09T08:36:39;75.30;;;50.38;;
6834;SDS011;3455;42.150;24.734;2022-11-09T08:39:05;65.18;;;53.83;;
6834;SDS011;3455;42.150;24.734;2022-11-09T08:41:32;67.28;;;48.33;;
6834;SDS011;3455;42.150;24.734;2022-11-09T08:43:59;68.00;;;47.83;;
6834;SDS011;3455;42.150;24.734;2022-11-09T08:46:26;69.68;;;47.50;;
6834;SDS011;3455;42.150;24.734;2022-11-09T08:48:52;58.20;;;46.22;;
6834;SDS011;3455;42.150;24.734;2022-11-09T08:51:20;61.17;;;47.03;;
6834;SDS011;3455;42.150;24.734;2022-11-09T08:53:47;60.38;;;44.33;;
6834;SDS011;3455;42.150;24.734;2022-11-09T08:56:14;60.72;;;45.22;;
6834;SDS011;3455;42.150;24.734;2022-11-09T08:58:43;58.60;;;42.80;;
6834;SDS011;3455;42.150;24.734;2022-11-09T09:01:10;47.97;;;42.75;;
6834;SDS011;3455;42.150;24.734;2022-11-09T09:03:37;48.60;;;41.58;;
6834;SDS011;3455;42.150;24.734;2022-11-09T09:06:04;52.67;;;42.65;;
6834;SDS011;3455;42.150;24.734;2022-11-09T09:08:33;47.70;;;39.47;;
6834;SDS011;3455;42.150;24.734;2022-11-09T09:11:00;46.53;;;40.30;;
6834;SDS011;3455;42.150;24.734;2022-11-09T09:13:28;43.97;;;38.42;;
6834;SDS011;3455;42.150;24.734;2022-11-09T09:15:54;46.40;;;39.97;;
6834;SDS011;3455;42.150;24.734;2022-11-09T09:18:21;50.72;;;41.85;;
6834;SDS011;3455;42.150;24.734;2022-11-09T09:24:11;53.08;;;40.10;;
6834;SDS011;3455;42.150;24.734;2022-11-09T09:26:37;51.33;;;41.00;;
6834;SDS011;3455;42.150;24.734;2022-11-09T09:29:04;43.80;;;38.83;;
6834;SDS011;3455;42.150;24.734;2022-11-09T09:34:53;47.13;;;38.78;;
6834;SDS011;3455;42.150;24.734;2022-11-09T09:37:19;43.08;;;37.70;;
6834;SDS011;3455;42.150;24.734;2022-11-09T09:39:48;46.05;;;37.70;;
6834;SDS011;3455;42.150;24.734;2022-11-09T09:42:16;45.85;;;38.65;;
6834;SDS011;3455;42.150;24.734;2022-11-09T09:44:46;49.92;;;39.55;;
6834;SDS011;3455;42.150;24.734;2022-11-09T09:47:18;47.47;;;36.08;;
6834;SDS011;3455;42.150;24.734;2022-11-09T09:49:51;42.55;;;36.03;;
6834;SDS011;3455;42.150;24.734;2022-11-09T09:55:44;39.25;;;35.00;;
6834;SDS011;3455;42.150;24.734;2022-11-09T09:58:17;39.63;;;35.33;;
6834;SDS011;3455;42.150;24.734;2022-11-09T10:00:50;38.55;;;34.13;;
6834;SDS011;3455;42.150;24.734;2022-11-09T10:03:20;36.80;;;32.50;;
6834;SDS011;3455;42.150;24.734;2022-11-09T10:05:48;40.25;;;33.20;;
6834;SDS011;3455;42.150;24.734;2022-11-09T10:08:24;38.17;;;33.80;;
6834;SDS011;3455;42.150;24.734;2022-11-09T10:11:04;46.92;;;35.28;;
6834;SDS011;3455;42.150;24.734;2022-11-09T10:13:52;41.50;;;33.42;;
6834;SDS011;3455;42.150;24.734;2022-11-09T10:16:26;49.20;;;36.53;;
6834;SDS011;3455;42.150;24.734;2022-11-09T10:19:12;39.55;;;30.73;;
6834;SDS011;3455;42.150;24.734;2022-11-09T10:21:48;35.15;;;31.60;;
6834;SDS011;3455;42.150;24.734;2022-11-09T10:24:22;34.20;;;30.55;;
6834;SDS011;3455;42.150;24.734;2022-11-09T10:27:01;36.72;;;32.85;;
6834;SDS011;3455;42.150;24.734;2022-11-09T10:29:45;37.45;;;33.60;;
6834;SDS011;3455;42.150;24.734;2022-11-09T10:32:14;34.75;;;29.98;;
6834;SDS011;3455;42.150;24.734;2022-11-09T10:34:54;34.63;;;28.45;;
6834;SDS011;3455;42.150;24.734;2022-11-09T10:37:27;35.38;;;31.65;;
6834;SDS011;3455;42.150;24.734;2022-11-09T10:39:59;37.47;;;31.02;;
6834;SDS011;3455;42.150;24.734;2022-11-09T10:42:31;35.58;;;31.85;;
6834;SDS011;3455;42.150;24.734;2022-11-09T10:44:57;37.80;;;31.08;;
6834;SDS011;3455;42.150;24.734;2022-11-09T10:47:32;33.92;;;30.33;;
6834;SDS011;3455;42.150;24.734;2022-11-09T10:50:15;36.25;;;29.70;;
6834;SDS011;3455;42.150;24.734;2022-11-09T10:52:51;35.03;;;31.33;;
6834;SDS011;3455;42.150;24.734;2022-11-09T10:58:44;31.23;;;28.23;;
6834;SDS011;3455;42.150;24.734;2022-11-09T11:01:13;31.50;;;28.17;;
6834;SDS011;3455;42.150;24.734;2022-11-09T11:03:42;32.65;;;29.20;;
6834;SDS011;3455;42.150;24.734;2022-11-09T11:06:13;30.60;;;27.65;;
6834;SDS011;3455;42.150;24.734;2022-11-09T11:08:42;32.67;;;29.13;;
6834;SDS011;3455;42.150;24.734;2022-11-09T11:11:14;31.23;;;27.98;;
6834;SDS011;3455;42.150;24.734;2022-11-09T11:13:46;36.85;;;29.67;;
6834;SDS011;3455;42.150;24.734;2022-11-09T11:16:14;32.03;;;28.35;;
6834;SDS011;3455;42.150;24.734;2022-11-09T11:18:50;32.08;;;28.17;;
6834;SDS011;3455;42.150;24.734;2022-11-09T11:21:17;31.80;;;28.40;;
6834;SDS011;3455;42.150;24.734;2022-11-09T11:23:50;32.90;;;28.52;;
6834;SDS011;3455;42.150;24.734;2022-11-09T11:26:31;33.53;;;30.15;;
6834;SDS011;3455;42.150;24.734;2022-11-09T11:29:05;32.60;;;28.10;;
6834;SDS011;3455;42.150;24.734;2022-11-09T11:31:45;27.70;;;24.13;;
6834;SDS011;3455;42.150;24.734;2022-11-09T11:34:13;26.23;;;22.33;;
6834;SDS011;3455;42.150;24.734;2022-11-09T11:36:45;27.35;;;23.80;;
6834;SDS011;3455;42.150;24.734;2022-11-09T11:39:25;24.52;;;22.10;;
6834;SDS011;3455;42.150;24.734;2022-11-09T11:45:28;24.88;;;22.38;;
6834;SDS011;3455;42.150;24.734;2022-11-09T11:48:10;26.67;;;22.27;;
6834;SDS011;3455;42.150;24.734;2022-11-09T11:50:55;30.88;;;23.15;;
6834;SDS011;3455;42.150;24.734;2022-11-09T11:53:30;31.55;;;23.65;;
6834;SDS011;3455;42.150;24.734;2022-11-09T11:56:17;25.83;;;23.27;;
6834;SDS011;3455;42.150;24.734;2022-11-09T11:58:51;27.25;;;24.33;;
6834;SDS011;3455;42.150;24.734;2022-11-09T12:01:31;25.60;;;22.60;;
6834;SDS011;3455;42.150;24.734;2022-11-09T12:04:12;26.92;;;22.48;;
6834;SDS011;3455;42.150;24.734;2022-11-09T12:09:54;27.98;;;21.33;;
6834;SDS011;3455;42.150;24.734;2022-11-09T12:15:54;26.10;;;20.27;;
6834;SDS011;3455;42.150;24.734;2022-11-09T12:18:33;22.75;;;20.50;;
6834;SDS011;3455;42.150;24.734;2022-11-09T12:21:11;22.88;;;19.15;;
6834;SDS011;3455;42.150;24.734;2022-11-09T12:27:07;22.55;;;20.35;;
6834;SDS011;3455;42.150;24.734;2022-11-09T12:29:45;26.33;;;21.15;;
6834;SDS011;3455;42.150;24.734;2022-11-09T12:32:20;21.83;;;19.63;;
6834;SDS011;3455;42.150;24.734;2022-11-09T12:34:59;25.73;;;20.55;;
6834;SDS011;3455;42.150;24.734;2022-11-09T12:37:42;24.23;;;19.95;;
6834;SDS011;3455;42.150;24.734;2022-11-09T12:40:15;29.73;;;20.27;;
6834;SDS011;3455;42.150;24.734;2022-11-09T12:42:48;21.17;;;18.70;;
6834;SDS011;3455;42.150;24.734;2022-11-09T12:45:23;22.00;;;19.50;;
6834;SDS011;3455;42.150;24.734;2022-11-09T12:47:53;22.38;;;20.15;;
6834;SDS011;3455;42.150;24.734;2022-11-09T12:50:25;22.63;;;20.08;;
6834;SDS011;3455;42.150;24.734;2022-11-09T12:52:53;23.90;;;20.73;;
6834;SDS011;3455;42.150;24.734;2022-11-09T12:55:21;23.67;;;20.05;;
6834;SDS011;3455;42.150;24.734;2022-11-09T12:57:52;24.10;;;20.33;;
6834;SDS011;3455;42.150;24.734;2022-11-09T13:03:18;21.88;;;19.50;;
6834;SDS011;3455;42.150;24.734;2022-11-09T13:09:18;22.92;;;19.63;;
6834;SDS011;3455;42.150;24.734;2022-11-09T13:11:50;21.15;;;18.70;;
6834;SDS011;3455;42.150;24.734;2022-11-09T13:14:32;20.80;;;18.67;;
6834;SDS011;3455;42.150;24.734;2022-11-09T13:17:00;21.70;;;19.30;;
6834;SDS011;3455;42.150;24.734;2022-11-09T13:19:51;25.70;;;21.05;;
6834;SDS011;3455;42.150;24.734;2022-11-09T13:31:07;22.17;;;19.85;;
6834;SDS011;3455;42.150;24.734;2022-11-09T13:33:36;29.75;;;21.55;;
6834;SDS011;3455;42.150;24.734;2022-11-09T13:36:14;27.73;;;20.60;;
6834;SDS011;3455;42.150;24.734;2022-11-09T13:38:43;30.25;;;21.00;;
6834;SDS011;3455;42.150;24.734;2022-11-09T13:44:20;21.00;;;18.13;;
6834;SDS011;3455;42.150;24.734;2022-11-09T13:46:49;20.85;;;18.73;;
6834;SDS011;3455;42.150;24.734;2022-11-09T13:49:38;25.42;;;20.38;;
6834;SDS011;3455;42.150;24.734;2022-11-09T13:55:30;25.08;;;19.05;;
6834;SDS011;3455;42.150;24.734;2022-11-09T13:58:03;22.15;;;18.63;;
6834;SDS011;3455;42.150;24.734;2022-11-09T14:00:37;20.83;;;18.27;;
6834;SDS011;3455;42.150;24.734;2022-11-09T14:03:14;26.08;;;19.55;;
6834;SDS011;3455;42.150;24.734;2022-11-09T14:05:43;20.45;;;18.50;;
6834;SDS011;3455;42.150;24.734;2022-11-09T14:08:18;32.88;;;25.13;;
6834;SDS011;3455;42.150;24.734;2022-11-09T14:10:52;26.35;;;22.40;;
6834;SDS011;3455;42.150;24.734;2022-11-09T14:13:36;28.05;;;22.23;;
6834;SDS011;3455;42.150;24.734;2022-11-09T14:16:19;36.30;;;26.10;;
6834;SDS011;3455;42.150;24.734;2022-11-09T14:18:56;37.08;;;24.90;;
6834;SDS011;3455;42.150;24.734;2022-11-09T14:21:44;36.45;;;28.95;;
6834;SDS011;3455;42.150;24.734;2022-11-09T14:24:16;27.73;;;23.25;;
6834;SDS011;3455;42.150;24.734;2022-11-09T14:27:09;29.98;;;21.42;;
6834;SDS011;3455;42.150;24.734;2022-11-09T14:29:47;32.67;;;22.27;;
6834;SDS011;3455;42.150;24.734;2022-11-09T14:35:10;30.60;;;23.03;;
6834;SDS011;3455;42.150;24.734;2022-11-09T14:37:44;34.45;;;22.45;;
6834;SDS011;3455;42.150;24.734;2022-11-09T14:40:17;33.95;;;22.13;;
6834;SDS011;3455;42.150;24.734;2022-11-09T14:42:47;29.00;;;21.90;;
6834;SDS011;3455;42.150;24.734;2022-11-09T14:45:17;29.60;;;22.23;;
6834;SDS011;3455;42.150;24.734;2022-11-09T14:47:45;28.97;;;22.40;;
6834;SDS011;3455;42.150;24.734;2022-11-09T14:50:15;35.03;;;22.97;;
6834;SDS011;3455;42.150;24.734;2022-11-09T14:52:45;32.50;;;24.33;;
6834;SDS011;3455;42.150;24.734;2022-11-09T14:55:12;30.53;;;23.50;;
6834;SDS011;3455;42.150;24.734;2022-11-09T14:57:40;32.70;;;22.67;;
6834;SDS011;3455;42.150;24.734;2022-11-09T15:00:23;37.53;;;23.87;;
6834;SDS011;3455;42.150;24.734;2022-11-09T15:02:52;34.80;;;24.23;;
6834;SDS011;3455;42.150;24.734;2022-11-09T15:05:27;38.47;;;24.73;;
6834;SDS011;3455;42.150;24.734;2022-11-09T15:07:57;44.07;;;27.73;;
6834;SDS011;3455;42.150;24.734;2022-11-09T15:10:25;42.87;;;25.53;;
6834;SDS011;3455;42.150;24.734;2022-11-09T15:16:21;48.37;;;28.00;;
6834;SDS011;3455;42.150;24.734;2022-11-09T15:18:51;38.53;;;24.93;;
6834;SDS011;3455;42.150;24.734;2022-11-09T15:21:19;46.33;;;26.87;;
6834;SDS011;3455;42.150;24.734;2022-11-09T15:24:02;45.30;;;26.67;;
6834;SDS011;3455;42.150;24.734;2022-11-09T15:26:35;40.57;;;28.03;;
6834;SDS011;3455;42.150;24.734;2022-11-09T15:35:19;50.67;;;31.50;;
6834;SDS011;3455;42.150;24.734;2022-11-09T15:37:47;42.93;;;28.53;;
6834;SDS011;3455;42.150;24.734;2022-11-09T15:40:16;44.00;;;30.10;;
6834;SDS011;3455;42.150;24.734;2022-11-09T15:42:45;43.57;;;29.43;;
6834;SDS011;3455;42.150;24.734;2022-11-09T15:45:12;49.00;;;28.80;;
6834;SDS011;3455;42.150;24.734;2022-11-09T15:47:40;49.67;;;30.97;;
6834;SDS011;3455;42.150;24.734;2022-11-09T15:50:14;48.77;;;32.53;;
6834;SDS011;3455;42.150;24.734;2022-11-09T15:52:44;50.03;;;33.80;;
6834;SDS011;3455;42.150;24.734;2022-11-09T15:55:11;57.73;;;32.43;;
6834;SDS011;3455;42.150;24.734;2022-11-09T15:57:38;65.17;;;35.50;;
6834;SDS011;3455;42.150;24.734;2022-11-09T16:00:05;57.53;;;35.50;;
6834;SDS011;3455;42.150;24.734;2022-11-09T16:02:36;69.13;;;37.90;;
6834;SDS011;3455;42.150;24.734;2022-11-09T16:05:03;72.17;;;39.53;;
6834;SDS011;3455;42.150;24.734;2022-11-09T16:07:31;80.20;;;45.00;;
6834;SDS011;3455;42.150;24.734;2022-11-09T16:09:59;83.23;;;45.07;;
6834;SDS011;3455;42.150;24.734;2022-11-09T16:12:25;74.63;;;43.17;;
6834;SDS011;3455;42.150;24.734;2022-11-09T16:14:52;73.67;;;39.83;;
6834;SDS011;3455;42.150;24.734;2022-11-09T16:20:40;78.50;;;42.47;;
6834;SDS011;3455;42.150;24.734;2022-11-09T16:23:07;80.93;;;42.33;;
6834;SDS011;3455;42.150;24.734;2022-11-09T16:25:35;72.43;;;40.97;;
6834;SDS011;3455;42.150;24.734;2022-11-09T16:28:02;75.70;;;41.07;;
6834;SDS011;3455;42.150;24.734;2022-11-09T16:33:51;65.50;;;37.03;;
6834;SDS011;3455;42.150;24.734;2022-11-09T16:36:18;65.80;;;37.73;;
6834;SDS011;3455;42.150;24.734;2022-11-09T16:42:10;79.07;;;40.70;;